createdAt,value
2023-04-08T00:01:23.892Z,97768.08
2023-04-08T00:03:51.967Z,97767.88
2023-04-08T00:06:20.121Z,97766.50
2023-04-08T00:08:48.231Z,97768.59
2023-04-08T00:11:16.364Z,97773.42
2023-04-08T00:13:44.586Z,97772.27
2023-04-08T00:16:12.507Z,97773.14
2023-04-08T00:18:41.420Z,97772.45
2023-04-08T00:21:09.614Z,97771.10
2023-04-08T00:23:37.520Z,97772.34
2023-04-08T00:26:05.767Z,97772.55
2023-04-08T00:28:33.687Z,97773.20
2023-04-08T00:31:01.978Z,97772.63
2023-04-08T00:33:32.840Z,97775.11
2023-04-08T00:36:00.831Z,97773.79
2023-04-08T00:38:28.804Z,97777.31
2023-04-08T00:40:56.700Z,97778.92
2023-04-08T00:43:24.677Z,97783.31
2023-04-08T00:45:52.716Z,97781.48
2023-04-08T00:48:20.918Z,97779.33
2023-04-08T00:50:48.800Z,97779.23
2023-04-08T00:53:20.492Z,97782.29
2023-04-08T00:55:48.349Z,97783.45
2023-04-08T00:58:19.013Z,97785.87
2023-04-08T01:01:10.395Z,97782.23
2023-04-08T01:04:10.450Z,97780.84
2023-04-08T01:06:51.460Z,97775.87
2023-04-08T01:09:23.795Z,97773.84
2023-04-08T01:11:54.078Z,97774.60
2023-04-08T01:14:27.201Z,97774.02
2023-04-08T01:16:59.094Z,97772.71
2023-04-08T01:19:38.823Z,97774.49
2023-04-08T01:22:38.042Z,97772.64
2023-04-08T01:25:12.828Z,97775.23
2023-04-08T01:27:41.261Z,97773.70
2023-04-08T01:30:10.610Z,97771.15
2023-04-08T01:32:41.327Z,97772.16
2023-04-08T01:35:11.336Z,97773.33
2023-04-08T01:37:40.605Z,97772.78
2023-04-08T01:40:10.343Z,97771.01
2023-04-08T01:42:39.894Z,97772.69
2023-04-08T01:45:09.939Z,97774.20
2023-04-08T01:47:39.894Z,97777.92
2023-04-08T01:50:09.860Z,97776.31
2023-04-08T01:52:40.468Z,97779.80
2023-04-08T01:55:08.581Z,97776.08
2023-04-08T01:57:38.513Z,97769.23
2023-04-08T02:00:10.483Z,97773.79
2023-04-08T02:02:53.441Z,97773.87
2023-04-08T02:05:21.710Z,97776.52
2023-04-08T02:07:49.761Z,97778.16
2023-04-08T02:10:19.758Z,97779.25
2023-04-08T02:12:47.755Z,97776.59
2023-04-08T02:15:16.891Z,97778.73
2023-04-08T02:17:51.134Z,97779.00
2023-04-08T02:20:25.033Z,97779.39
2023-04-08T02:23:11.803Z,97779.46
2023-04-08T02:25:44.413Z,97778.61
2023-04-08T02:28:14.223Z,97777.56
2023-04-08T02:30:45.297Z,97776.02
2023-04-08T02:33:14.913Z,97777.73
2023-04-08T02:35:44.846Z,97776.30
2023-04-08T02:38:12.972Z,97778.17
2023-04-08T02:40:40.945Z,97782.07
2023-04-08T02:43:08.893Z,97784.09
2023-04-08T02:45:42.379Z,97782.97
2023-04-08T02:48:10.969Z,97783.96
2023-04-08T02:50:40.106Z,97782.52
2023-04-08T02:53:09.422Z,97783.36
2023-04-08T02:55:38.052Z,97781.34
2023-04-08T02:58:06.198Z,97778.98
2023-04-08T03:00:34.229Z,97776.24
2023-04-08T03:03:02.375Z,97774.08
2023-04-08T03:05:30.518Z,97773.48
2023-04-08T03:07:58.649Z,97775.44
2023-04-08T03:10:26.617Z,97774.51
2023-04-08T03:12:54.573Z,97771.66
2023-04-08T03:15:22.483Z,97769.67
2023-04-08T03:17:51.042Z,97770.41
2023-04-08T03:20:19.022Z,97774.17
2023-04-08T03:22:47.110Z,97774.98
2023-04-08T03:25:14.945Z,97781.32
2023-04-08T03:27:42.822Z,97782.07
2023-04-08T03:30:11.182Z,97782.96
2023-04-08T03:32:39.102Z,97783.38
2023-04-08T03:35:07.277Z,97786.27
2023-04-08T03:37:35.718Z,97788.34
2023-04-08T03:40:04.352Z,97789.42
2023-04-08T03:42:32.457Z,97792.72
2023-04-08T03:45:00.500Z,97792.52
2023-04-08T03:47:28.522Z,97797.00
2023-04-08T03:49:56.512Z,97797.04
2023-04-08T03:52:25.643Z,97796.56
2023-04-08T03:54:53.601Z,97799.70
2023-04-08T03:57:21.411Z,97801.86
2023-04-08T03:59:49.405Z,97806.55
2023-04-08T04:02:19.466Z,97806.42
2023-04-08T04:04:47.756Z,97810.95
2023-04-08T04:07:15.779Z,97814.08
2023-04-08T04:09:43.748Z,97815.13
2023-04-08T04:12:11.568Z,97817.55
2023-04-08T04:14:39.402Z,97819.79
2023-04-08T04:17:07.292Z,97821.48
2023-04-08T04:19:35.143Z,97820.91
2023-04-08T04:22:03.057Z,97821.06
2023-04-08T04:24:30.994Z,97824.34
2023-04-08T04:26:58.878Z,97826.23
2023-04-08T04:29:26.785Z,97827.67
2023-04-08T04:31:54.594Z,97832.66
2023-04-08T04:34:22.510Z,97834.07
2023-04-08T04:36:50.518Z,97832.70
2023-04-08T04:39:18.490Z,97834.95
2023-04-08T04:41:47.495Z,97834.29
2023-04-08T04:44:16.235Z,97840.22
2023-04-08T04:46:44.170Z,97842.48
2023-04-08T04:49:12.301Z,97844.41
2023-04-08T04:51:40.207Z,97844.88
2023-04-08T04:54:08.087Z,97848.94
2023-04-08T04:56:36.109Z,97851.58
2023-04-08T04:59:05.573Z,97851.98
2023-04-08T05:01:33.534Z,97858.06
2023-04-08T05:04:01.543Z,97858.80
2023-04-08T05:06:33.003Z,97860.89
2023-04-08T05:09:01.619Z,97859.11
2023-04-08T05:11:29.850Z,97858.17
2023-04-08T05:13:57.925Z,97861.09
2023-04-08T05:16:25.950Z,97866.97
2023-04-08T05:18:53.963Z,97865.06
2023-04-08T05:21:21.800Z,97864.20
2023-04-08T05:23:53.113Z,97867.83
2023-04-08T05:26:21.938Z,97871.30
2023-04-08T05:28:51.772Z,97871.76
2023-04-08T05:31:21.349Z,97873.58
2023-04-08T05:33:49.303Z,97878.32
2023-04-08T05:36:17.304Z,97878.78
2023-04-08T05:38:45.665Z,97878.23
2023-04-08T05:41:13.475Z,97881.84
2023-04-08T05:43:41.439Z,97882.70
2023-04-08T05:46:10.578Z,97882.33
2023-04-08T05:48:38.561Z,97884.10
2023-04-08T05:51:06.597Z,97886.82
2023-04-08T05:53:34.489Z,97886.29
2023-04-08T05:56:02.324Z,97886.26
2023-04-08T05:58:30.332Z,97889.19
2023-04-08T06:00:58.385Z,97887.62
2023-04-08T06:03:26.797Z,97894.58
2023-04-08T06:05:55.341Z,97897.16
2023-04-08T06:08:23.837Z,97896.27
2023-04-08T06:10:52.453Z,97895.95
2023-04-08T06:13:21.215Z,97896.50
2023-04-08T06:15:50.005Z,97897.11
2023-04-08T06:18:18.328Z,97898.45
2023-04-08T06:20:46.699Z,97896.05
2023-04-08T06:23:14.616Z,97900.42
2023-04-08T06:25:42.611Z,97904.65
2023-04-08T06:28:10.552Z,97903.16
2023-04-08T06:30:38.374Z,97903.58
2023-04-08T06:33:06.510Z,97904.84
2023-04-08T06:35:34.492Z,97902.31
2023-04-08T06:38:02.423Z,97902.94
2023-04-08T06:40:30.586Z,97902.54
2023-04-08T06:42:58.631Z,97903.80
2023-04-08T06:45:34.869Z,97904.66
2023-04-08T06:48:02.936Z,97905.02
2023-04-08T06:50:30.766Z,97905.27
2023-04-08T06:52:58.631Z,97904.11
2023-04-08T06:55:27.127Z,97900.89
2023-04-08T06:57:54.956Z,97902.35
2023-04-08T07:00:22.921Z,97905.17
2023-04-08T07:02:51.353Z,97904.02
2023-04-08T07:05:19.387Z,97904.11
2023-04-08T07:07:47.280Z,97906.80
2023-04-08T07:10:15.957Z,97903.60
2023-04-08T07:12:43.835Z,97903.52
2023-04-08T07:15:11.861Z,97906.83
2023-04-08T07:17:39.951Z,97904.61
2023-04-08T07:20:08.313Z,97906.94
2023-04-08T07:22:36.243Z,97905.58
2023-04-08T07:25:04.480Z,97905.93
2023-04-08T07:27:34.679Z,97907.85
2023-04-08T07:30:03.298Z,97910.33
2023-04-08T07:32:31.444Z,97908.67
2023-04-08T07:35:00.904Z,97911.86
2023-04-08T07:37:28.963Z,97909.46
2023-04-08T07:39:57.109Z,97908.47
2023-04-08T07:42:25.012Z,97910.90
2023-04-08T07:44:53.177Z,97910.99
2023-04-08T07:47:21.322Z,97914.28
2023-04-08T07:49:49.397Z,97913.98
2023-04-08T07:52:18.180Z,97909.70
2023-04-08T07:54:46.131Z,97911.10
2023-04-08T07:57:14.363Z,97910.63
2023-04-08T07:59:42.388Z,97913.83
2023-04-08T08:02:10.464Z,97909.16
2023-04-08T08:04:38.610Z,97912.13
2023-04-08T08:07:06.921Z,97915.41
2023-04-08T08:09:35.027Z,97911.79
2023-04-08T08:12:03.008Z,97912.49
2023-04-08T08:14:31.275Z,97910.42
2023-04-08T08:16:59.200Z,97907.98
2023-04-08T08:19:27.165Z,97904.73
2023-04-08T08:21:55.026Z,97899.02
2023-04-08T08:24:23.008Z,97894.31
2023-04-08T08:26:51.298Z,97891.84
2023-04-08T08:29:19.271Z,97893.36
2023-04-08T08:31:48.727Z,97895.08
2023-04-08T08:34:17.001Z,97895.77
2023-04-08T08:36:45.046Z,97895.07
2023-04-08T08:39:12.866Z,97893.86
2023-04-08T08:41:42.238Z,97891.98
2023-04-08T08:44:10.234Z,97892.86
2023-04-08T08:46:44.247Z,97893.53
2023-04-08T08:49:13.240Z,97894.25
2023-04-08T08:51:42.306Z,97895.99
2023-04-08T08:54:10.685Z,97894.77
2023-04-08T08:56:38.725Z,97896.43
2023-04-08T08:59:06.664Z,97897.55
2023-04-08T09:01:41.556Z,97898.20
2023-04-08T09:04:23.103Z,97902.20
2023-04-08T09:07:09.282Z,97902.71
2023-04-08T09:09:51.780Z,97900.23
2023-04-08T09:12:20.583Z,97904.23
2023-04-08T09:14:49.513Z,97901.95
2023-04-08T09:17:41.889Z,97898.10
2023-04-08T09:20:12.393Z,97899.64
2023-04-08T09:23:01.646Z,97901.33
2023-04-08T09:25:32.827Z,97901.65
2023-04-08T09:28:02.265Z,97901.70
2023-04-08T09:30:32.514Z,97902.45
2023-04-08T09:33:01.755Z,97902.21
2023-04-08T09:35:29.634Z,97906.16
2023-04-08T09:37:57.568Z,97908.23
2023-04-08T09:40:27.881Z,97906.23
2023-04-08T09:43:00.844Z,97905.02
2023-04-08T09:45:32.138Z,97905.60
2023-04-08T09:48:13.871Z,97900.09
2023-04-08T09:50:49.896Z,97898.38
2023-04-08T09:53:30.251Z,97898.00
2023-04-08T09:56:00.796Z,97897.38
2023-04-08T09:58:34.022Z,97897.92
2023-04-08T10:01:03.136Z,97897.09
2023-04-08T10:03:40.571Z,97900.84
2023-04-08T10:06:10.529Z,97900.09
2023-04-08T10:08:38.728Z,97902.80
2023-04-08T10:11:07.275Z,97902.78
2023-04-08T10:13:36.534Z,97905.92
2023-04-08T10:16:17.450Z,97907.23
2023-04-08T10:18:45.583Z,97905.79
2023-04-08T10:21:39.899Z,97904.20
2023-04-08T10:24:10.146Z,97905.99
2023-04-08T10:26:43.434Z,97902.11
2023-04-08T10:29:17.669Z,97902.73
2023-04-08T10:31:47.135Z,97906.17
2023-04-08T10:34:26.727Z,97909.32
2023-04-08T10:36:56.987Z,97905.69
2023-04-08T10:39:27.481Z,97903.11
2023-04-08T10:41:56.472Z,97903.77
2023-04-08T10:44:26.951Z,97905.44
2023-04-08T10:46:55.784Z,97907.36
2023-04-08T10:49:33.377Z,97904.74
2023-04-08T10:52:01.585Z,97901.89
2023-04-08T10:54:29.571Z,97903.84
2023-04-08T10:56:57.476Z,97902.29
2023-04-08T10:59:33.271Z,97906.18
2023-04-08T11:02:02.643Z,97907.27
2023-04-08T11:04:31.224Z,97908.99
2023-04-08T11:06:59.993Z,97912.56
2023-04-08T11:09:27.965Z,97912.36
2023-04-08T11:11:57.031Z,97914.36
2023-04-08T11:14:25.898Z,97915.81
2023-04-08T11:16:54.034Z,97909.41
2023-04-08T11:19:22.979Z,97910.28
2023-04-08T11:21:51.521Z,97907.16
2023-04-08T11:24:22.465Z,97911.13
2023-04-08T11:26:51.068Z,97906.15
2023-04-08T11:29:19.452Z,97906.70
2023-04-08T11:31:49.730Z,97907.73
2023-04-08T11:34:25.199Z,97902.73
2023-04-08T11:36:53.434Z,97901.30
2023-04-08T11:39:24.776Z,97898.91
2023-04-08T11:41:53.404Z,97898.84
2023-04-08T11:44:30.722Z,97901.38
2023-04-08T11:46:58.846Z,97901.55
2023-04-08T11:49:26.754Z,97899.65
2023-04-08T11:51:57.868Z,97901.76
2023-04-08T11:54:30.038Z,97898.21
2023-04-08T11:56:59.367Z,97895.84
2023-04-08T11:59:29.279Z,97894.06
2023-04-08T12:01:58.143Z,97894.96
2023-04-08T12:04:26.500Z,97893.29
2023-04-08T12:06:55.372Z,97891.80
2023-04-08T12:09:24.790Z,97890.91
2023-04-08T12:11:52.710Z,97886.02
2023-04-08T12:14:22.190Z,97884.65
2023-04-08T12:16:50.119Z,97884.33
2023-04-08T12:19:17.915Z,97882.20
2023-04-08T12:21:46.103Z,97880.10
2023-04-08T12:24:14.009Z,97877.23
2023-04-08T12:26:41.915Z,97879.90
2023-04-08T12:29:12.034Z,97876.14
2023-04-08T12:31:40.226Z,97877.24
2023-04-08T12:34:08.324Z,97876.24
2023-04-08T12:36:36.258Z,97872.16
2023-04-08T12:39:05.734Z,97876.93
2023-04-08T12:41:34.055Z,97879.20
2023-04-08T12:44:01.938Z,97874.92
2023-04-08T12:46:29.954Z,97876.16
2023-04-08T12:49:04.264Z,97875.05
2023-04-08T12:51:33.322Z,97873.81
2023-04-08T12:54:03.684Z,97872.22
2023-04-08T12:56:32.558Z,97869.30
2023-04-08T12:59:01.504Z,97872.78
2023-04-08T13:01:31.127Z,97872.77
2023-04-08T13:03:59.614Z,97869.25
2023-04-08T13:06:28.394Z,97869.73
2023-04-08T13:08:56.457Z,97867.89
2023-04-08T13:11:24.787Z,97871.52
2023-04-08T13:13:53.216Z,97871.77
2023-04-08T13:16:22.130Z,97868.96
2023-04-08T13:18:50.632Z,97870.25
2023-04-08T13:21:19.030Z,97867.96
2023-04-08T13:23:47.052Z,97866.48
2023-04-08T13:26:14.892Z,97864.82
2023-04-08T13:28:55.915Z,97863.50
2023-04-08T13:31:25.983Z,97863.58
2023-04-08T13:33:57.673Z,97858.48
2023-04-08T13:36:29.011Z,97858.23
2023-04-08T13:38:57.647Z,97857.93
2023-04-08T13:41:26.386Z,97855.02
2023-04-08T13:43:54.377Z,97855.68
2023-04-08T13:46:22.563Z,97855.00
2023-04-08T13:48:50.842Z,97854.97
2023-04-08T13:51:19.515Z,97856.73
2023-04-08T13:53:47.651Z,97857.98
2023-04-08T13:56:15.496Z,97854.33
2023-04-08T13:58:44.758Z,97853.53
2023-04-08T14:01:14.257Z,97853.70
2023-04-08T14:03:42.693Z,97848.05
2023-04-08T14:06:10.637Z,97849.73
2023-04-08T14:08:38.492Z,97850.24
2023-04-08T14:11:06.733Z,97849.27
2023-04-08T14:13:34.678Z,97846.83
2023-04-08T14:16:03.289Z,97845.64
2023-04-08T14:18:31.381Z,97845.11
2023-04-08T14:20:59.296Z,97844.77
2023-04-08T14:23:27.259Z,97852.55
2023-04-08T14:25:55.126Z,97857.67
2023-04-08T14:28:23.011Z,97858.30
2023-04-08T14:30:51.190Z,97856.33
2023-04-08T14:33:19.142Z,97857.98
2023-04-08T14:35:48.189Z,97859.46
2023-04-08T14:38:16.241Z,97858.46
2023-04-08T14:40:44.198Z,97857.98
2023-04-08T14:43:13.686Z,97856.54
2023-04-08T14:45:42.757Z,97856.50
2023-04-08T14:48:10.906Z,97858.12
2023-04-08T14:50:38.950Z,97853.23
2023-04-08T14:53:07.306Z,97854.84
2023-04-08T14:55:35.340Z,97854.88
2023-04-08T14:58:03.273Z,97854.15
2023-04-08T15:00:31.191Z,97856.64
2023-04-08T15:02:59.251Z,97860.00
2023-04-08T15:05:27.877Z,97860.20
2023-04-08T15:07:56.118Z,97862.62
2023-04-08T15:10:24.152Z,97859.63
2023-04-08T15:12:51.915Z,97859.77
2023-04-08T15:15:19.794Z,97858.55
2023-04-08T15:17:49.101Z,97860.07
2023-04-08T15:20:19.035Z,97858.53
2023-04-08T15:22:48.004Z,97861.52
2023-04-08T15:25:16.140Z,97862.68
2023-04-08T15:27:44.077Z,97866.86
2023-04-08T15:30:12.571Z,97868.46
2023-04-08T15:32:42.293Z,97866.45
2023-04-08T15:35:11.456Z,97866.19
2023-04-08T15:37:39.367Z,97865.70
2023-04-08T15:40:08.619Z,97868.21
2023-04-08T15:42:36.692Z,97867.92
2023-04-08T15:45:05.310Z,97871.45
2023-04-08T15:47:35.573Z,97872.02
2023-04-08T15:50:03.765Z,97876.59
2023-04-08T15:52:32.610Z,97878.39
2023-04-08T15:55:02.550Z,97880.34
2023-04-08T15:57:32.550Z,97884.38
2023-04-08T16:00:00.920Z,97886.00
2023-04-08T16:02:29.860Z,97886.73
2023-04-08T16:04:58.185Z,97888.70
2023-04-08T16:07:26.230Z,97892.40
2023-04-08T16:09:54.506Z,97893.52
2023-04-08T16:12:22.570Z,97897.13
2023-04-08T16:14:51.892Z,97894.93
2023-04-08T16:17:19.850Z,97898.27
2023-04-08T16:19:48.242Z,97897.23
2023-04-08T16:22:16.183Z,97898.52
2023-04-08T16:24:44.070Z,97899.42
2023-04-08T16:27:12.095Z,97904.16
2023-04-08T16:29:39.978Z,97905.25
2023-04-08T16:32:09.216Z,97903.39
2023-04-08T16:34:37.539Z,97904.30
2023-04-08T16:37:05.527Z,97902.59
2023-04-08T16:39:33.498Z,97902.25
2023-04-08T16:42:01.400Z,97906.43
2023-04-08T16:44:29.327Z,97905.57
2023-04-08T16:46:57.375Z,97909.26
2023-04-08T16:49:25.334Z,97912.23
2023-04-08T16:51:53.363Z,97913.80
2023-04-08T16:54:21.276Z,97915.04
2023-04-08T16:56:49.164Z,97918.01
2023-04-08T16:59:17.073Z,97918.38
2023-04-08T17:01:44.956Z,97922.04
2023-04-08T17:04:13.138Z,97922.05
2023-04-08T17:06:42.268Z,97927.81
2023-04-08T17:09:11.088Z,97928.18
2023-04-08T17:11:38.986Z,97930.80
2023-04-08T17:14:07.462Z,97931.88
2023-04-08T17:16:36.257Z,97935.72
2023-04-08T17:19:04.358Z,97935.74
2023-04-08T17:21:32.719Z,97937.83
2023-04-08T17:24:00.654Z,97939.61
2023-04-08T17:26:28.720Z,97942.23
2023-04-08T17:28:59.029Z,97946.23
2023-04-08T17:31:27.668Z,97946.23
2023-04-08T17:33:55.728Z,97949.21
2023-04-08T17:36:24.098Z,97951.67
2023-04-08T17:38:52.225Z,97951.68
2023-04-08T17:41:38.119Z,97953.95
2023-04-08T17:44:08.597Z,97960.05
2023-04-08T17:46:36.952Z,97963.55
2023-04-08T17:49:05.021Z,97966.34
2023-04-08T17:51:33.051Z,97970.00
2023-04-08T17:54:01.186Z,97969.66
2023-04-08T17:56:29.149Z,97971.92
2023-04-08T17:58:57.122Z,97975.42
2023-04-08T18:01:25.128Z,97981.85
2023-04-08T18:03:53.324Z,97984.48
2023-04-08T18:06:21.811Z,97983.96
2023-04-08T18:08:50.094Z,97986.76
2023-04-08T18:11:18.075Z,97988.67
2023-04-08T18:13:46.268Z,97996.33
2023-04-08T18:16:19.151Z,97997.73
2023-04-08T18:18:48.042Z,98003.65
2023-04-08T18:21:18.956Z,98005.57
2023-04-08T18:23:49.995Z,98007.84
2023-04-08T18:26:18.400Z,98008.54
2023-04-08T18:28:46.595Z,98008.71
2023-04-08T18:31:14.838Z,98009.59
2023-04-08T18:33:42.728Z,98011.67
2023-04-08T18:36:15.204Z,98014.46
2023-04-08T18:38:45.150Z,98012.89
2023-04-08T18:41:14.333Z,98018.29
2023-04-08T18:43:42.196Z,98018.46
2023-04-08T18:46:10.176Z,98016.90
2023-04-08T18:48:38.399Z,98014.63
2023-04-08T18:51:06.529Z,98016.73
2023-04-08T18:53:34.549Z,98018.13
2023-04-08T18:56:02.968Z,98018.11
2023-04-08T18:58:32.029Z,98020.39
2023-04-08T19:01:00.179Z,98022.48
2023-04-08T19:03:28.652Z,98023.33
2023-04-08T19:05:56.938Z,98026.63
2023-04-08T19:08:25.024Z,98024.89
2023-04-08T19:10:52.882Z,98023.48
2023-04-08T19:13:23.271Z,98021.05
2023-04-08T19:15:51.646Z,98020.52
2023-04-08T19:18:19.763Z,98021.20
2023-04-08T19:20:48.261Z,98024.14
2023-04-08T19:23:16.612Z,98025.52
2023-04-08T19:25:44.964Z,98025.70
2023-04-08T19:28:14.635Z,98024.48
2023-04-08T19:30:42.708Z,98027.25
2023-04-08T19:33:11.308Z,98024.13
2023-04-08T19:35:39.869Z,98023.44
2023-04-08T19:38:08.549Z,98025.36
2023-04-08T19:40:36.416Z,98023.46
2023-04-08T19:43:04.298Z,98026.42
2023-04-08T19:45:32.361Z,98025.73
2023-04-08T19:48:00.406Z,98025.91
2023-04-08T19:50:28.560Z,98025.92
2023-04-08T19:52:56.499Z,98029.06
2023-04-08T19:55:24.713Z,98029.94
2023-04-08T19:57:52.932Z,98026.46
2023-04-08T20:00:21.039Z,98025.95
2023-04-08T20:02:49.113Z,98025.77
2023-04-08T20:05:17.873Z,98026.30
2023-04-08T20:07:45.825Z,98026.65
2023-04-08T20:10:14.717Z,98026.83
2023-04-08T20:12:42.710Z,98025.44
2023-04-08T20:15:23.512Z,98026.48
2023-04-08T20:17:53.355Z,98027.17
2023-04-08T20:20:21.537Z,98029.25
2023-04-08T20:22:49.508Z,98029.61
2023-04-08T20:25:17.557Z,98025.43
2023-04-08T20:27:45.450Z,98027.17
2023-04-08T20:30:13.329Z,98029.27
2023-04-08T20:32:41.287Z,98029.43
2023-04-08T20:35:09.317Z,98030.65
2023-04-08T20:37:37.927Z,98030.48
2023-04-08T20:40:07.581Z,98031.16
2023-04-08T20:42:35.631Z,98032.74
2023-04-08T20:45:03.881Z,98031.35
2023-04-08T20:47:31.837Z,98034.83
2023-04-08T20:49:59.916Z,98039.16
2023-04-08T20:52:27.858Z,98040.90
2023-04-08T20:54:55.858Z,98041.25
2023-04-08T20:57:23.920Z,98043.16
2023-04-08T20:59:51.888Z,98043.33
2023-04-08T21:02:21.767Z,98047.85
2023-04-08T21:04:49.976Z,98047.48
2023-04-08T21:07:18.337Z,98048.17
2023-04-08T21:09:49.395Z,98051.13
2023-04-08T21:12:17.584Z,98053.39
2023-04-08T21:14:45.995Z,98054.25
2023-04-08T21:17:13.914Z,98058.23
2023-04-08T21:19:42.276Z,98056.50
2023-04-08T21:22:10.277Z,98061.01
2023-04-08T21:24:38.126Z,98061.16
2023-04-08T21:27:06.179Z,98061.51
2023-04-08T21:29:34.413Z,98062.55
2023-04-08T21:32:02.340Z,98063.41
2023-04-08T21:34:30.215Z,98062.88
2023-04-08T21:36:58.147Z,98063.41
2023-04-08T21:39:26.510Z,98067.06
2023-04-08T21:41:54.336Z,98066.55
2023-04-08T21:44:22.377Z,98064.82
2023-04-08T21:46:50.381Z,98065.52
2023-04-08T21:49:18.199Z,98068.82
2023-04-08T21:51:46.449Z,98070.39
2023-04-08T21:54:14.433Z,98070.55
2023-04-08T21:56:43.580Z,98071.41
2023-04-08T21:59:11.584Z,98076.43
2023-04-08T22:01:39.782Z,98074.11
2023-04-08T22:04:07.938Z,98075.65
2023-04-08T22:06:36.329Z,98079.47
2023-04-08T22:09:04.345Z,98082.08
2023-04-08T22:11:32.525Z,98083.46
2023-04-08T22:14:00.450Z,98081.55
2023-04-08T22:16:28.265Z,98082.77
2023-04-08T22:18:56.553Z,98084.13
2023-04-08T22:21:25.419Z,98083.77
2023-04-08T22:23:53.330Z,98082.56
2023-04-08T22:26:21.679Z,98083.77
2023-04-08T22:28:49.959Z,98085.70
2023-04-08T22:31:18.357Z,98089.52
2023-04-08T22:33:46.620Z,98088.48
2023-04-08T22:36:14.483Z,98090.58
2023-04-08T22:38:42.510Z,98090.59
2023-04-08T22:41:18.029Z,98088.16
2023-04-08T22:43:45.922Z,98088.00
2023-04-08T22:46:15.232Z,98087.66
2023-04-08T22:48:43.112Z,98088.17
2023-04-08T22:51:11.434Z,98090.06
2023-04-08T22:53:39.665Z,98085.55
2023-04-08T22:56:07.767Z,98086.60
2023-04-08T22:58:35.857Z,98087.97
2023-04-08T23:01:17.558Z,98086.56
2023-04-08T23:03:45.626Z,98083.77
2023-04-08T23:06:13.573Z,98087.23
2023-04-08T23:08:41.617Z,98086.86
2023-04-08T23:11:09.614Z,98082.87
2023-04-08T23:13:37.657Z,98088.21
2023-04-08T23:16:06.510Z,98087.86
2023-04-08T23:18:34.497Z,98086.27
2023-04-08T23:21:02.487Z,98083.47
2023-04-08T23:23:30.351Z,98084.53
2023-04-08T23:25:58.234Z,98084.38
2023-04-08T23:28:26.295Z,98083.02
2023-04-08T23:30:54.203Z,98081.10
2023-04-08T23:33:22.163Z,98079.36
2023-04-08T23:35:50.047Z,98078.83
2023-04-08T23:38:17.893Z,98076.91
2023-04-08T23:40:45.952Z,98074.81
2023-04-08T23:43:14.047Z,98073.06
2023-04-08T23:45:42.069Z,98073.38
2023-04-08T23:48:10.254Z,98072.48
2023-04-08T23:50:38.380Z,98071.77
2023-04-08T23:53:06.296Z,98070.70
2023-04-08T23:55:34.440Z,98073.29
2023-04-08T23:58:02.347Z,98074.30
